^^
Station Historical Data
Daily Summary for March 2, 2017 Units:  English    Metric   Both
« Previous Day
Next Day »
Daily Weekly Monthly Yearly Custom
  High: Low: Average:
Temperature: 62.2 °F 32.0 °F 43.4 °F
Dew Point: 52.0 °F 11.7 °F 23.2 °F
Humidity: 71% 36% 45%
Wind Speed: 15.0mph 0.0mph 5.9mph
Wind Gust: 35.0mph - -
Wind- - SW
Pressure: 30.10 in 29.40 in -
Precipitation: 0.00 in    
Historical Graphs
 
 
Tabular Data for March 2, 2017
Time Temperature Dew Point Pressure Wind Wind Speed Wind Gust Humidity Rainfall Rate (Hourly) Conditions
00:00 62.2 °F 51.5 °F 29.40 in SW 6.0 mph 15.0 mph 68% 0.00 in RA
00:15 61.9 °F 51.6 °F 29.41 in SW 6.0 mph 16.0 mph 69% 0.00 in CLR
00:30 61.5 °F 51.7 °F 29.41 in SSW 7.0 mph 16.0 mph 70% 0.00 in CLR
00:45 61.4 °F 51.9 °F 29.41 in SSW 5.0 mph 20.0 mph 71% 0.00 in CLR
01:00 61.5 °F 52.0 °F 29.41 in SW 3.0 mph 16.0 mph 71% 0.00 in CLR
02:15 57.4 °F 44.5 °F 29.43 in SW 5.0 mph 30.0 mph 62% 0.00 in CLR
02:30 56.7 °F 43.0 °F 29.43 in SW 9.0 mph 20.0 mph 60% 0.00 in CLR
02:45 56.1 °F 42.0 °F 29.43 in WSW 7.0 mph 20.0 mph 59% 0.00 in CLR
03:00 55.7 °F 40.2 °F 29.44 in SW 8.0 mph 21.0 mph 56% 0.00 in CLR
03:15 55.3 °F 38.4 °F 29.44 in WSW 7.0 mph 26.0 mph 53% 0.00 in BKN
03:30 54.6 °F 36.3 °F 29.44 in WSW 10.0 mph 24.0 mph 50% 0.00 in BKN
03:45 53.5 °F 31.5 °F 29.46 in SW 14.0 mph 30.0 mph 43% 0.00 in BKN
04:00 52.4 °F 31.1 °F 29.47 in SSW 10.0 mph 27.0 mph 44% 0.00 in BKN
04:15 50.4 °F 29.3 °F 29.49 in South 8.0 mph 25.0 mph 44% 0.00 in FEW
04:30 49.6 °F 29.1 °F 29.50 in WSW 7.0 mph 29.0 mph 45% 0.00 in FEW
04:45 49.2 °F 27.1 °F 29.49 in SW 8.0 mph 28.0 mph 42% 0.00 in FEW
05:00 48.5 °F 27.0 °F 29.49 in SW 7.0 mph 27.0 mph 43% 0.00 in FEW
05:15 48.1 °F 27.2 °F 29.50 in WSW 5.0 mph 20.0 mph 44% 0.00 in CLR
05:30 47.7 °F 27.4 °F 29.50 in SW 9.0 mph 24.0 mph 45% 0.00 in CLR
05:45 47.7 °F 26.8 °F 29.50 in SW 13.0 mph 26.0 mph 44% 0.00 in CLR
06:00 47.3 °F 26.4 °F 29.50 in SW 10.0 mph 27.0 mph 44% 0.00 in CLR
06:15 46.9 °F 26.1 °F 29.51 in SW 13.0 mph 28.0 mph 44% 0.00 in CLR
06:30 46.4 °F 26.2 °F 29.52 in SW 12.0 mph 24.0 mph 45% 0.00 in CLR
06:45 46.3 °F 26.6 °F 29.54 in SW 12.0 mph 35.0 mph 46% 0.00 in CLR
07:00 45.9 °F 26.8 °F 29.54 in SSW 7.0 mph 26.0 mph 47% 0.00 in CLR
07:15 45.2 °F 27.2 °F 29.56 in WSW 12.0 mph 29.0 mph 49% 0.00 in FEW
07:30 44.6 °F 26.1 °F 29.57 in SSW 9.0 mph 29.0 mph 48% 0.00 in FEW
07:45 44.1 °F 25.6 °F 29.59 in WSW 14.0 mph 33.0 mph 48% 0.00 in FEW
08:00 43.8 °F 26.8 °F 29.60 in WSW 8.0 mph 29.0 mph 51% 0.00 in FEW
08:15 43.5 °F 26.1 °F 29.62 in SW 7.0 mph 28.0 mph 50% 0.00 in SCT
08:30 43.5 °F 25.1 °F 29.63 in SW 15.0 mph 24.0 mph 48% 0.00 in SCT
08:45 43.3 °F 24.4 °F 29.64 in SW 13.0 mph 24.0 mph 47% 0.00 in SCT
09:00 43.3 °F 22.3 °F 29.64 in ESE 7.0 mph 33.0 mph 43% 0.00 in SCT
09:15 43.3 °F 23.4 °F 29.65 in WSW 7.0 mph 17.0 mph 45% 0.00 in SCT
09:30 42.5 °F 21.0 °F 29.67 in WSW 10.0 mph 28.0 mph 42% 0.00 in SCT
09:45 42.1 °F 20.7 °F 29.68 in North 8.0 mph 22.0 mph 42% 0.00 in SCT
10:00 42.1 °F 21.2 °F 29.69 in ESE 6.0 mph 18.0 mph 43% 0.00 in SCT
10:15 41.6 °F 20.7 °F 29.71 in WSW 8.0 mph 24.0 mph 43% 0.00 in FEW
10:30 41.4 °F 20.5 °F 29.72 in SSW 7.0 mph 29.0 mph 43% 0.00 in FEW
10:45 41.8 °F 22.0 °F 29.73 in SE 2.0 mph 24.0 mph 45% 0.00 in FEW
11:00 41.9 °F 21.0 °F 29.74 in WSW 5.0 mph 16.0 mph 43% 0.00 in FEW
11:15 42.3 °F 21.4 °F 29.74 in SW 6.0 mph 16.0 mph 43% 0.00 in FEW
11:30 42.2 °F 21.8 °F 29.76 in SW 8.0 mph 20.0 mph 44% 0.00 in FEW
11:45 41.6 °F 21.3 °F 29.76 in WSW 7.0 mph 17.0 mph 44% 0.00 in FEW
12:00 41.6 °F 21.2 °F 29.77 in SW 3.0 mph 21.0 mph 44% 0.00 in FEW
12:15 41.9 °F 21.5 °F 29.77 in NW 6.0 mph 20.0 mph 44% 0.00 in FEW
12:30 42.0 °F 22.1 °F 29.78 in WNW 5.0 mph 20.0 mph 45% 0.00 in FEW
12:45 41.3 °F 21.0 °F 29.78 in SSE 7.0 mph 15.0 mph 44% 0.00 in FEW
13:00 41.5 °F 20.1 °F 29.78 in WSW 6.0 mph 17.0 mph 42% 0.00 in FEW
13:15 41.8 °F 20.9 °F 29.79 in WNW 7.0 mph 20.0 mph 43% 0.00 in FEW
13:30 42.4 °F 21.5 °F 29.79 in WNW 3.0 mph 20.0 mph 43% 0.00 in FEW
13:45 42.3 °F 20.8 °F 29.79 in North 7.0 mph 18.0 mph 42% 0.00 in FEW
14:00 42.1 °F 20.6 °F 29.80 in NNW 3.0 mph 20.0 mph 42% 0.00 in FEW
14:15 42.3 °F 20.8 °F 29.82 in NW 6.0 mph 21.0 mph 42% 0.00 in FEW
14:30 42.4 °F 20.4 °F 29.82 in NNW 7.0 mph 13.0 mph 41% 0.00 in FEW
14:45 42.5 °F 20.4 °F 29.82 in West 3.0 mph 13.0 mph 41% 0.00 in FEW
15:00 42.5 °F 20.4 °F 29.84 in West 7.0 mph 20.0 mph 41% 0.00 in FEW
15:15 42.4 °F 21.4 °F 29.85 in NW 6.0 mph 18.0 mph 43% 0.00 in FEW
15:30 42.0 °F 20.5 °F 29.86 in South 5.0 mph 18.0 mph 42% 0.00 in FEW
15:45 41.6 °F 19.6 °F 29.87 in WNW 6.0 mph 24.0 mph 41% 0.00 in FEW
16:00 41.1 °F 18.6 °F 29.88 in WSW 7.0 mph 24.0 mph 40% 0.00 in FEW
16:15 41.3 °F 18.8 °F 29.88 in WNW 8.0 mph 15.0 mph 40% 0.00 in FEW
16:30 41.0 °F 17.9 °F 29.89 in South 7.0 mph 14.0 mph 39% 0.00 in FEW
16:45 41.1 °F 18.0 °F 29.90 in ENE 6.0 mph 15.0 mph 39% 0.00 in FEW
17:00 40.9 °F 17.8 °F 29.91 in West 3.0 mph 9.0 mph 39% 0.00 in FEW
17:15 40.8 °F 17.1 °F 29.92 in SE 3.0 mph 10.0 mph 38% 0.00 in FEW
17:30 40.0 °F 15.8 °F 29.94 in North 2.0 mph 12.0 mph 37% 0.00 in FEW
17:45 39.3 °F 16.4 °F 29.95 in South 2.0 mph 12.0 mph 39% 0.00 in FEW
18:00 38.8 °F 15.3 °F 29.96 in West 5.0 mph 13.0 mph 38% 0.00 in FEW
18:15 38.6 °F 15.1 °F 29.97 in SSE 5.0 mph 12.0 mph 38% 0.00 in CLR
18:30 38.4 °F 15.0 °F 29.98 in South 3.0 mph 12.0 mph 38% 0.00 in CLR
18:45 38.1 °F 15.9 °F 29.99 in SSE 1.0 mph 12.0 mph 40% 0.00 in CLR
19:00 37.9 °F 14.5 °F 29.99 in SW 3.0 mph 14.0 mph 38% 0.00 in CLR
19:15 37.8 °F 13.8 °F 30.00 in ESE 2.0 mph 14.0 mph 37% 0.00 in CLR
19:30 37.5 °F 14.8 °F 30.01 in SW 2.0 mph 12.0 mph 39% 0.00 in CLR
19:45 37.3 °F 14.6 °F 30.02 in South 2.0 mph 14.0 mph 39% 0.00 in CLR
20:00 37.1 °F 14.4 °F 30.03 in ESE 2.0 mph 15.0 mph 39% 0.00 in CLR
20:15 36.7 °F 14.6 °F 30.03 in WSW 3.0 mph 14.0 mph 40% 0.00 in CLR
20:30 36.4 °F 13.8 °F 30.04 in West 2.0 mph 12.0 mph 39% 0.00 in CLR
20:45 36.1 °F 11.7 °F 30.05 in SSW 5.0 mph 20.0 mph 36% 0.00 in CLR
21:00 35.7 °F 11.9 °F 30.06 in SSE 2.0 mph 17.0 mph 37% 0.00 in CLR
21:15 35.3 °F 12.2 °F 30.06 in South 2.0 mph 15.0 mph 38% 0.00 in CLR
21:30 34.8 °F 11.7 °F 30.07 in NW 2.0 mph 13.0 mph 38% 0.00 in CLR
21:45 34.5 °F 12.1 °F 30.08 in NE 1.0 mph 8.0 mph 39% 0.00 in CLR
22:00 34.2 °F 12.9 °F 30.08 in Calm   14.0 mph 41% 0.00 in CLR
22:15 33.9 °F 13.2 °F 30.09 in SW 3.0 mph 12.0 mph 42% 0.00 in CLR
22:30 33.7 °F 13.5 °F 30.09 in WNW 1.0 mph 14.0 mph 43% 0.00 in CLR
22:45 33.3 °F 13.7 °F 30.09 in WSW 2.0 mph 9.0 mph 44% 0.00 in CLR
23:00 33.0 °F 13.9 °F 30.10 in West 1.0 mph 12.0 mph 45% 0.00 in CLR
23:15 32.6 °F 14.1 °F 30.10 in Calm   6.0 mph 46% 0.00 in CLR
23:30 32.4 °F 13.9 °F 30.10 in Calm   6.0 mph 46% 0.00 in CLR
23:45 32.0 °F 13.5 °F 30.10 in NNE 1.0 mph 7.0 mph 46% 0.00 in CLR
TarryTown NY Weather
Compliments of Weather Underground - 1.5 mb